sensor_id;sensor_type;location;lat;lon;timestamp;P1;durP1;ratioP1;P2;durP2;ratioP2
45382;SDS011;42455;51.660;5.824;2022-07-23T00:04:16;4.5;;;3.0;;
45382;SDS011;42455;51.660;5.824;2022-07-23T00:09:22;5.0;;;4.0;;
45382;SDS011;42455;51.660;5.824;2022-07-23T00:14:28;5.0;;;4.0;;
45382;SDS011;42455;51.660;5.824;2022-07-23T00:19:34;4.0;;;4.0;;
45382;SDS011;42455;51.660;5.824;2022-07-23T00:24:40;4.0;;;4.0;;
45382;SDS011;42455;51.660;5.824;2022-07-23T00:29:47;5.0;;;4.0;;
45382;SDS011;42455;51.660;5.824;2022-07-23T00:34:53;4.0;;;3.5;;
45382;SDS011;42455;51.660;5.824;2022-07-23T00:39:59;4.0;;;4.0;;
45382;SDS011;42455;51.660;5.824;2022-07-23T00:45:06;4.0;;;4.0;;
45382;SDS011;42455;51.660;5.824;2022-07-23T00:50:12;4.0;;;4.0;;
45382;SDS011;42455;51.660;5.824;2022-07-23T00:55:18;4.0;;;4.0;;
45382;SDS011;42455;51.660;5.824;2022-07-23T01:00:24;4.0;;;4.0;;
45382;SDS011;42455;51.660;5.824;2022-07-23T01:05:30;5.0;;;4.0;;
45382;SDS011;42455;51.660;5.824;2022-07-23T01:10:36;4.0;;;4.0;;
45382;SDS011;42455;51.660;5.824;2022-07-23T01:15:43;4.0;;;4.0;;
45382;SDS011;42455;51.660;5.824;2022-07-23T01:20:49;4.0;;;4.0;;
45382;SDS011;42455;51.660;5.824;2022-07-23T01:25:55;4.0;;;4.0;;
45382;SDS011;42455;51.660;5.824;2022-07-23T01:31:01;5.0;;;4.0;;
45382;SDS011;42455;51.660;5.824;2022-07-23T01:36:07;5.0;;;4.0;;
45382;SDS011;42455;51.660;5.824;2022-07-23T01:41:14;4.5;;;4.0;;
45382;SDS011;42455;51.660;5.824;2022-07-23T01:46:20;5.0;;;4.0;;
45382;SDS011;42455;51.660;5.824;2022-07-23T01:51:26;4.0;;;4.0;;
45382;SDS011;42455;51.660;5.824;2022-07-23T01:56:32;5.0;;;4.0;;
45382;SDS011;42455;51.660;5.824;2022-07-23T02:01:38;4.0;;;4.0;;
45382;SDS011;42455;51.660;5.824;2022-07-23T02:06:45;4.0;;;4.0;;
45382;SDS011;42455;51.660;5.824;2022-07-23T02:11:51;5.0;;;4.0;;
45382;SDS011;42455;51.660;5.824;2022-07-23T02:16:57;5.0;;;5.0;;
45382;SDS011;42455;51.660;5.824;2022-07-23T02:22:03;5.0;;;4.0;;
45382;SDS011;42455;51.660;5.824;2022-07-23T02:27:09;4.0;;;4.0;;
45382;SDS011;42455;51.660;5.824;2022-07-23T02:32:16;5.0;;;4.0;;
45382;SDS011;42455;51.660;5.824;2022-07-23T02:37:22;5.0;;;5.0;;
45382;SDS011;42455;51.660;5.824;2022-07-23T02:42:28;5.0;;;5.0;;
45382;SDS011;42455;51.660;5.824;2022-07-23T02:47:34;5.0;;;5.0;;
45382;SDS011;42455;51.660;5.824;2022-07-23T02:52:40;5.0;;;4.0;;
45382;SDS011;42455;51.660;5.824;2022-07-23T02:57:46;5.0;;;5.0;;
45382;SDS011;42455;51.660;5.824;2022-07-23T03:02:52;4.0;;;4.0;;
45382;SDS011;42455;51.660;5.824;2022-07-23T03:07:58;4.0;;;4.0;;
45382;SDS011;42455;51.660;5.824;2022-07-23T03:13:04;5.0;;;4.0;;
45382;SDS011;42455;51.660;5.824;2022-07-23T03:18:11;5.0;;;5.0;;
45382;SDS011;42455;51.660;5.824;2022-07-23T03:23:17;5.0;;;4.0;;
45382;SDS011;42455;51.660;5.824;2022-07-23T03:28:23;5.0;;;5.0;;
45382;SDS011;42455;51.660;5.824;2022-07-23T03:33:29;5.0;;;5.0;;
45382;SDS011;42455;51.660;5.824;2022-07-23T03:38:35;5.0;;;5.0;;
45382;SDS011;42455;51.660;5.824;2022-07-23T03:43:42;5.0;;;4.5;;
45382;SDS011;42455;51.660;5.824;2022-07-23T03:48:48;5.0;;;5.0;;
45382;SDS011;42455;51.660;5.824;2022-07-23T03:53:54;5.0;;;5.0;;
45382;SDS011;42455;51.660;5.824;2022-07-23T03:59:00;6.0;;;5.0;;
45382;SDS011;42455;51.660;5.824;2022-07-23T04:04:07;6.0;;;5.0;;
45382;SDS011;42455;51.660;5.824;2022-07-23T04:09:13;5.0;;;5.0;;
45382;SDS011;42455;51.660;5.824;2022-07-23T04:14:19;6.0;;;5.0;;
45382;SDS011;42455;51.660;5.824;2022-07-23T04:19:25;6.0;;;5.0;;
45382;SDS011;42455;51.660;5.824;2022-07-23T04:24:31;6.0;;;6.0;;
45382;SDS011;42455;51.660;5.824;2022-07-23T04:29:37;7.0;;;6.0;;
45382;SDS011;42455;51.660;5.824;2022-07-23T04:34:44;7.0;;;6.0;;
45382;SDS011;42455;51.660;5.824;2022-07-23T04:39:50;7.0;;;7.0;;
45382;SDS011;42455;51.660;5.824;2022-07-23T04:44:56;8.0;;;7.0;;
45382;SDS011;42455;51.660;5.824;2022-07-23T04:50:03;8.0;;;7.0;;
45382;SDS011;42455;51.660;5.824;2022-07-23T04:55:09;8.0;;;7.0;;
45382;SDS011;42455;51.660;5.824;2022-07-23T05:00:15;9.0;;;8.0;;
45382;SDS011;42455;51.660;5.824;2022-07-23T05:05:21;9.0;;;8.0;;
45382;SDS011;42455;51.660;5.824;2022-07-23T05:10:27;9.0;;;8.0;;
45382;SDS011;42455;51.660;5.824;2022-07-23T05:15:34;9.0;;;8.0;;
45382;SDS011;42455;51.660;5.824;2022-07-23T05:20:40;10.0;;;9.0;;
45382;SDS011;42455;51.660;5.824;2022-07-23T05:25:46;9.0;;;9.0;;
45382;SDS011;42455;51.660;5.824;2022-07-23T05:30:52;10.0;;;9.0;;
45382;SDS011;42455;51.660;5.824;2022-07-23T05:35:59;11.0;;;10.0;;
45382;SDS011;42455;51.660;5.824;2022-07-23T05:41:05;10.0;;;9.0;;
45382;SDS011;42455;51.660;5.824;2022-07-23T05:46:11;10.0;;;9.0;;
45382;SDS011;42455;51.660;5.824;2022-07-23T05:51:19;10.0;;;9.0;;
45382;SDS011;42455;51.660;5.824;2022-07-23T05:56:23;10.0;;;9.0;;
45382;SDS011;42455;51.660;5.824;2022-07-23T06:01:29;10.0;;;9.0;;
45382;SDS011;42455;51.660;5.824;2022-07-23T06:06:36;10.0;;;9.0;;
45382;SDS011;42455;51.660;5.824;2022-07-23T06:11:42;9.0;;;8.0;;
45382;SDS011;42455;51.660;5.824;2022-07-23T06:16:48;10.0;;;9.0;;
45382;SDS011;42455;51.660;5.824;2022-07-23T06:21:54;9.0;;;8.0;;
45382;SDS011;42455;51.660;5.824;2022-07-23T06:27:00;9.0;;;8.0;;
45382;SDS011;42455;51.660;5.824;2022-07-23T06:32:07;8.0;;;7.0;;
45382;SDS011;42455;51.660;5.824;2022-07-23T06:37:13;7.0;;;7.0;;
45382;SDS011;42455;51.660;5.824;2022-07-23T06:42:19;7.0;;;6.0;;
45382;SDS011;42455;51.660;5.824;2022-07-23T06:47:25;6.0;;;6.0;;
45382;SDS011;42455;51.660;5.824;2022-07-23T06:52:31;6.0;;;5.5;;
45382;SDS011;42455;51.660;5.824;2022-07-23T06:57:38;6.0;;;5.0;;
45382;SDS011;42455;51.660;5.824;2022-07-23T07:02:44;6.0;;;5.0;;
45382;SDS011;42455;51.660;5.824;2022-07-23T07:07:50;5.0;;;5.0;;
45382;SDS011;42455;51.660;5.824;2022-07-23T07:12:56;4.0;;;4.0;;
45382;SDS011;42455;51.660;5.824;2022-07-23T07:18:02;5.0;;;4.0;;
45382;SDS011;42455;51.660;5.824;2022-07-23T07:23:09;4.0;;;3.0;;
45382;SDS011;42455;51.660;5.824;2022-07-23T07:28:15;4.0;;;3.0;;
45382;SDS011;42455;51.660;5.824;2022-07-23T07:33:21;4.0;;;4.0;;
45382;SDS011;42455;51.660;5.824;2022-07-23T07:38:27;4.0;;;3.0;;
45382;SDS011;42455;51.660;5.824;2022-07-23T07:48:40;4.0;;;3.0;;
45382;SDS011;42455;51.660;5.824;2022-07-23T07:53:46;3.0;;;2.0;;
45382;SDS011;42455;51.660;5.824;2022-07-23T07:58:52;3.0;;;3.0;;
45382;SDS011;42455;51.660;5.824;2022-07-23T08:03:58;4.0;;;3.0;;
45382;SDS011;42455;51.660;5.824;2022-07-23T08:09:05;4.0;;;3.0;;
45382;SDS011;42455;51.660;5.824;2022-07-23T08:14:11;3.0;;;2.0;;
45382;SDS011;42455;51.660;5.824;2022-07-23T08:19:17;3.0;;;2.0;;
45382;SDS011;42455;51.660;5.824;2022-07-23T08:29:28;4.0;;;3.0;;
45382;SDS011;42455;51.660;5.824;2022-07-23T08:34:35;3.0;;;3.0;;
45382;SDS011;42455;51.660;5.824;2022-07-23T08:39:41;4.0;;;3.0;;
45382;SDS011;42455;51.660;5.824;2022-07-23T08:44:47;4.0;;;3.0;;
45382;SDS011;42455;51.660;5.824;2022-07-23T08:49:53;4.0;;;3.0;;
45382;SDS011;42455;51.660;5.824;2022-07-23T08:54:59;4.0;;;4.0;;
45382;SDS011;42455;51.660;5.824;2022-07-23T09:00:06;4.0;;;3.0;;
45382;SDS011;42455;51.660;5.824;2022-07-23T09:05:15;4.0;;;3.0;;
45382;SDS011;42455;51.660;5.824;2022-07-23T09:10:18;4.0;;;3.0;;
45382;SDS011;42455;51.660;5.824;2022-07-23T09:15:24;4.0;;;4.0;;
45382;SDS011;42455;51.660;5.824;2022-07-23T09:20:31;5.0;;;4.0;;
45382;SDS011;42455;51.660;5.824;2022-07-23T09:25:37;4.0;;;4.0;;
45382;SDS011;42455;51.660;5.824;2022-07-23T09:30:43;4.0;;;3.0;;
45382;SDS011;42455;51.660;5.824;2022-07-23T09:35:49;4.0;;;3.0;;
45382;SDS011;42455;51.660;5.824;2022-07-23T09:41:06;3.0;;;3.0;;
45382;SDS011;42455;51.660;5.824;2022-07-23T09:46:21;3.0;;;3.0;;
45382;SDS011;42455;51.660;5.824;2022-07-23T09:51:08;3.0;;;3.0;;
45382;SDS011;42455;51.660;5.824;2022-07-23T09:56:14;3.0;;;3.0;;
45382;SDS011;42455;51.660;5.824;2022-07-23T10:01:20;4.0;;;3.0;;
45382;SDS011;42455;51.660;5.824;2022-07-23T10:06:26;4.0;;;4.0;;
45382;SDS011;42455;51.660;5.824;2022-07-23T10:11:33;4.0;;;3.0;;
45382;SDS011;42455;51.660;5.824;2022-07-23T10:16:39;6.0;;;2.0;;
45382;SDS011;42455;51.660;5.824;2022-07-23T10:21:46;3.0;;;3.0;;
45382;SDS011;42455;51.660;5.824;2022-07-23T10:26:53;4.0;;;3.0;;
45382;SDS011;42455;51.660;5.824;2022-07-23T10:32:49;4.0;;;3.0;;
45382;SDS011;42455;51.660;5.824;2022-07-23T10:37:39;5.0;;;3.0;;
45382;SDS011;42455;51.660;5.824;2022-07-23T10:42:13;5.0;;;4.0;;
45382;SDS011;42455;51.660;5.824;2022-07-23T10:47:27;5.0;;;3.0;;
45382;SDS011;42455;51.660;5.824;2022-07-23T10:52:26;3.5;;;3.0;;
45382;SDS011;42455;51.660;5.824;2022-07-23T10:57:29;3.0;;;3.0;;
45382;SDS011;42455;51.660;5.824;2022-07-23T11:02:36;4.0;;;3.0;;
45382;SDS011;42455;51.660;5.824;2022-07-23T11:08:10;3.0;;;3.0;;
45382;SDS011;42455;51.660;5.824;2022-07-23T11:12:47;3.0;;;3.0;;
45382;SDS011;42455;51.660;5.824;2022-07-23T11:17:59;4.0;;;3.0;;
45382;SDS011;42455;51.660;5.824;2022-07-23T11:23:00;4.0;;;3.0;;
45382;SDS011;42455;51.660;5.824;2022-07-23T11:28:09;4.0;;;3.0;;
45382;SDS011;42455;51.660;5.824;2022-07-23T11:33:19;3.0;;;3.0;;
45382;SDS011;42455;51.660;5.824;2022-07-23T11:38:19;3.0;;;2.0;;
45382;SDS011;42455;51.660;5.824;2022-07-23T11:43:25;4.0;;;3.0;;
45382;SDS011;42455;51.660;5.824;2022-07-23T11:48:31;3.0;;;3.0;;
45382;SDS011;42455;51.660;5.824;2022-07-23T11:53:37;3.0;;;3.0;;
45382;SDS011;42455;51.660;5.824;2022-07-23T11:58:54;4.0;;;3.0;;
45382;SDS011;42455;51.660;5.824;2022-07-23T12:03:49;3.0;;;3.0;;
45382;SDS011;42455;51.660;5.824;2022-07-23T12:08:55;3.0;;;3.0;;
45382;SDS011;42455;51.660;5.824;2022-07-23T12:14:02;3.0;;;3.0;;
45382;SDS011;42455;51.660;5.824;2022-07-23T12:19:08;3.0;;;3.0;;
45382;SDS011;42455;51.660;5.824;2022-07-23T12:24:14;3.0;;;3.0;;
45382;SDS011;42455;51.660;5.824;2022-07-23T12:29:20;3.0;;;3.0;;
45382;SDS011;42455;51.660;5.824;2022-07-23T12:34:27;3.0;;;3.0;;
45382;SDS011;42455;51.660;5.824;2022-07-23T12:39:33;3.0;;;3.0;;
45382;SDS011;42455;51.660;5.824;2022-07-23T12:44:39;3.0;;;3.0;;
45382;SDS011;42455;51.660;5.824;2022-07-23T12:49:45;4.0;;;3.0;;
45382;SDS011;42455;51.660;5.824;2022-07-23T12:54:51;4.0;;;3.0;;
45382;SDS011;42455;51.660;5.824;2022-07-23T13:00:06;3.0;;;3.0;;
45382;SDS011;42455;51.660;5.824;2022-07-23T13:05:04;3.0;;;3.0;;
45382;SDS011;42455;51.660;5.824;2022-07-23T13:10:10;4.0;;;3.0;;
45382;SDS011;42455;51.660;5.824;2022-07-23T13:15:16;3.0;;;2.0;;
45382;SDS011;42455;51.660;5.824;2022-07-23T13:20:23;3.0;;;2.0;;
45382;SDS011;42455;51.660;5.824;2022-07-23T13:25:29;3.0;;;2.0;;
45382;SDS011;42455;51.660;5.824;2022-07-23T13:30:35;3.0;;;3.0;;
45382;SDS011;42455;51.660;5.824;2022-07-23T13:35:41;3.0;;;3.0;;
45382;SDS011;42455;51.660;5.824;2022-07-23T13:40:48;3.0;;;3.0;;
45382;SDS011;42455;51.660;5.824;2022-07-23T13:45:54;3.0;;;3.0;;
45382;SDS011;42455;51.660;5.824;2022-07-23T13:51:00;3.0;;;2.0;;
45382;SDS011;42455;51.660;5.824;2022-07-23T13:56:05;3.0;;;3.0;;
45382;SDS011;42455;51.660;5.824;2022-07-23T14:01:12;3.0;;;3.0;;
45382;SDS011;42455;51.660;5.824;2022-07-23T14:06:18;3.0;;;3.0;;
45382;SDS011;42455;51.660;5.824;2022-07-23T14:11:24;3.0;;;2.0;;
45382;SDS011;42455;51.660;5.824;2022-07-23T14:16:30;3.0;;;2.0;;
45382;SDS011;42455;51.660;5.824;2022-07-23T14:21:37;3.0;;;3.0;;
45382;SDS011;42455;51.660;5.824;2022-07-23T14:26:42;3.0;;;2.0;;
45382;SDS011;42455;51.660;5.824;2022-07-23T14:31:48;3.0;;;3.0;;
45382;SDS011;42455;51.660;5.824;2022-07-23T14:36:54;3.0;;;2.0;;
45382;SDS011;42455;51.660;5.824;2022-07-23T14:42:01;3.0;;;3.0;;
45382;SDS011;42455;51.660;5.824;2022-07-23T14:47:07;3.0;;;3.0;;
45382;SDS011;42455;51.660;5.824;2022-07-23T14:52:13;3.0;;;3.0;;
45382;SDS011;42455;51.660;5.824;2022-07-23T14:57:19;4.0;;;3.0;;
45382;SDS011;42455;51.660;5.824;2022-07-23T15:02:25;3.0;;;3.0;;
45382;SDS011;42455;51.660;5.824;2022-07-23T15:07:32;3.0;;;3.0;;
45382;SDS011;42455;51.660;5.824;2022-07-23T15:12:38;3.0;;;3.0;;
45382;SDS011;42455;51.660;5.824;2022-07-23T15:17:44;3.0;;;3.0;;
45382;SDS011;42455;51.660;5.824;2022-07-23T15:22:50;3.0;;;3.0;;
45382;SDS011;42455;51.660;5.824;2022-07-23T15:27:56;3.0;;;3.0;;
45382;SDS011;42455;51.660;5.824;2022-07-23T15:33:03;3.5;;;3.0;;
45382;SDS011;42455;51.660;5.824;2022-07-23T15:38:09;3.0;;;3.0;;
45382;SDS011;42455;51.660;5.824;2022-07-23T15:43:15;4.0;;;3.0;;
45382;SDS011;42455;51.660;5.824;2022-07-23T15:48:21;3.0;;;3.0;;
45382;SDS011;42455;51.660;5.824;2022-07-23T15:53:28;3.0;;;3.0;;
45382;SDS011;42455;51.660;5.824;2022-07-23T15:58:34;3.0;;;3.0;;
45382;SDS011;42455;51.660;5.824;2022-07-23T16:03:40;3.0;;;3.0;;
45382;SDS011;42455;51.660;5.824;2022-07-23T16:08:46;4.0;;;3.0;;
45382;SDS011;42455;51.660;5.824;2022-07-23T16:13:52;4.0;;;3.0;;
45382;SDS011;42455;51.660;5.824;2022-07-23T16:18:59;4.0;;;3.0;;
45382;SDS011;42455;51.660;5.824;2022-07-23T16:24:05;4.0;;;3.0;;
45382;SDS011;42455;51.660;5.824;2022-07-23T16:29:11;3.0;;;3.0;;
45382;SDS011;42455;51.660;5.824;2022-07-23T16:34:17;3.0;;;3.0;;
45382;SDS011;42455;51.660;5.824;2022-07-23T16:39:23;4.0;;;3.0;;
45382;SDS011;42455;51.660;5.824;2022-07-23T16:44:30;4.0;;;3.0;;
45382;SDS011;42455;51.660;5.824;2022-07-23T16:49:36;4.0;;;3.0;;
45382;SDS011;42455;51.660;5.824;2022-07-23T16:54:42;4.0;;;3.0;;
45382;SDS011;42455;51.660;5.824;2022-07-23T16:59:48;4.0;;;3.0;;
45382;SDS011;42455;51.660;5.824;2022-07-23T17:04:55;3.0;;;3.0;;
45382;SDS011;42455;51.660;5.824;2022-07-23T17:10:01;3.0;;;3.0;;
45382;SDS011;42455;51.660;5.824;2022-07-23T17:15:07;3.0;;;3.0;;
45382;SDS011;42455;51.660;5.824;2022-07-23T17:20:13;3.0;;;3.0;;
45382;SDS011;42455;51.660;5.824;2022-07-23T17:25:20;4.0;;;3.0;;
45382;SDS011;42455;51.660;5.824;2022-07-23T17:30:26;3.0;;;3.0;;
45382;SDS011;42455;51.660;5.824;2022-07-23T17:35:32;3.0;;;3.0;;
45382;SDS011;42455;51.660;5.824;2022-07-23T17:40:38;3.0;;;3.0;;
45382;SDS011;42455;51.660;5.824;2022-07-23T17:45:44;3.0;;;3.0;;
45382;SDS011;42455;51.660;5.824;2022-07-23T17:50:51;4.0;;;3.0;;
45382;SDS011;42455;51.660;5.824;2022-07-23T17:55:57;4.0;;;3.0;;
45382;SDS011;42455;51.660;5.824;2022-07-23T18:01:03;4.0;;;3.0;;
45382;SDS011;42455;51.660;5.824;2022-07-23T18:06:09;4.0;;;3.0;;
45382;SDS011;42455;51.660;5.824;2022-07-23T18:11:16;5.0;;;4.0;;
45382;SDS011;42455;51.660;5.824;2022-07-23T18:16:22;4.0;;;4.0;;
45382;SDS011;42455;51.660;5.824;2022-07-23T18:21:28;4.0;;;3.0;;
45382;SDS011;42455;51.660;5.824;2022-07-23T18:26:34;5.0;;;4.0;;
45382;SDS011;42455;51.660;5.824;2022-07-23T18:31:40;4.0;;;4.0;;
45382;SDS011;42455;51.660;5.824;2022-07-23T18:36:47;4.0;;;4.0;;
45382;SDS011;42455;51.660;5.824;2022-07-23T18:41:53;4.0;;;4.0;;
45382;SDS011;42455;51.660;5.824;2022-07-23T18:46:59;5.0;;;5.0;;
45382;SDS011;42455;51.660;5.824;2022-07-23T18:52:05;11.0;;;10.0;;
45382;SDS011;42455;51.660;5.824;2022-07-23T18:57:12;8.0;;;7.0;;
45382;SDS011;42455;51.660;5.824;2022-07-23T19:02:18;5.0;;;5.0;;
45382;SDS011;42455;51.660;5.824;2022-07-23T19:07:24;5.0;;;5.0;;
45382;SDS011;42455;51.660;5.824;2022-07-23T19:12:30;8.0;;;7.0;;
45382;SDS011;42455;51.660;5.824;2022-07-23T19:17:37;5.0;;;5.0;;
45382;SDS011;42455;51.660;5.824;2022-07-23T19:17:37;5.0;;;5.0;;
45382;SDS011;42455;51.660;5.824;2022-07-23T19:22:43;5.0;;;4.0;;
45382;SDS011;42455;51.660;5.824;2022-07-23T19:27:49;5.0;;;5.0;;
45382;SDS011;42455;51.660;5.824;2022-07-23T19:32:55;5.0;;;4.0;;
45382;SDS011;42455;51.660;5.824;2022-07-23T19:38:02;4.0;;;4.0;;
45382;SDS011;42455;51.660;5.824;2022-07-23T19:43:08;4.0;;;4.0;;
45382;SDS011;42455;51.660;5.824;2022-07-23T19:48:14;6.0;;;5.0;;
45382;SDS011;42455;51.660;5.824;2022-07-23T19:53:20;5.0;;;5.0;;
45382;SDS011;42455;51.660;5.824;2022-07-23T19:58:25;5.0;;;4.0;;
45382;SDS011;42455;51.660;5.824;2022-07-23T20:03:31;5.0;;;4.0;;
45382;SDS011;42455;51.660;5.824;2022-07-23T20:08:38;5.0;;;5.0;;
45382;SDS011;42455;51.660;5.824;2022-07-23T20:13:44;6.0;;;5.0;;
45382;SDS011;42455;51.660;5.824;2022-07-23T20:18:50;6.0;;;5.0;;
45382;SDS011;42455;51.660;5.824;2022-07-23T20:23:56;7.0;;;6.0;;
45382;SDS011;42455;51.660;5.824;2022-07-23T20:29:03;7.0;;;6.0;;
45382;SDS011;42455;51.660;5.824;2022-07-23T20:34:09;6.0;;;6.0;;
45382;SDS011;42455;51.660;5.824;2022-07-23T20:39:15;6.0;;;5.0;;
45382;SDS011;42455;51.660;5.824;2022-07-23T20:44:21;6.0;;;5.0;;
45382;SDS011;42455;51.660;5.824;2022-07-23T20:49:27;7.0;;;6.0;;
45382;SDS011;42455;51.660;5.824;2022-07-23T20:54:34;8.0;;;7.0;;
45382;SDS011;42455;51.660;5.824;2022-07-23T20:59:40;9.0;;;8.0;;
45382;SDS011;42455;51.660;5.824;2022-07-23T21:04:46;8.0;;;7.0;;
45382;SDS011;42455;51.660;5.824;2022-07-23T21:09:52;8.0;;;8.0;;
45382;SDS011;42455;51.660;5.824;2022-07-23T21:14:58;8.0;;;7.0;;
45382;SDS011;42455;51.660;5.824;2022-07-23T21:20:05;8.0;;;7.0;;
45382;SDS011;42455;51.660;5.824;2022-07-23T21:25:11;8.0;;;7.0;;
45382;SDS011;42455;51.660;5.824;2022-07-23T21:30:17;8.0;;;7.0;;
45382;SDS011;42455;51.660;5.824;2022-07-23T21:35:23;8.0;;;8.0;;
45382;SDS011;42455;51.660;5.824;2022-07-23T21:40:29;8.0;;;7.5;;
45382;SDS011;42455;51.660;5.824;2022-07-23T21:45:36;9.0;;;8.0;;
45382;SDS011;42455;51.660;5.824;2022-07-23T21:50:42;11.0;;;10.0;;
45382;SDS011;42455;51.660;5.824;2022-07-23T21:55:48;10.0;;;9.0;;
45382;SDS011;42455;51.660;5.824;2022-07-23T22:00:55;9.0;;;8.0;;
45382;SDS011;42455;51.660;5.824;2022-07-23T22:06:00;9.0;;;8.0;;
45382;SDS011;42455;51.660;5.824;2022-07-23T22:11:07;9.0;;;8.0;;
45382;SDS011;42455;51.660;5.824;2022-07-23T22:16:13;10.0;;;9.0;;
45382;SDS011;42455;51.660;5.824;2022-07-23T22:21:19;11.0;;;10.0;;
45382;SDS011;42455;51.660;5.824;2022-07-23T22:26:25;13.0;;;12.0;;
45382;SDS011;42455;51.660;5.824;2022-07-23T22:31:31;13.0;;;11.0;;
45382;SDS011;42455;51.660;5.824;2022-07-23T22:36:38;10.0;;;9.0;;
45382;SDS011;42455;51.660;5.824;2022-07-23T22:41:44;9.0;;;9.0;;
45382;SDS011;42455;51.660;5.824;2022-07-23T22:46:50;9.0;;;8.0;;
45382;SDS011;42455;51.660;5.824;2022-07-23T22:51:56;8.0;;;8.0;;
45382;SDS011;42455;51.660;5.824;2022-07-23T22:57:03;9.0;;;8.0;;
45382;SDS011;42455;51.660;5.824;2022-07-23T23:02:09;10.0;;;9.0;;
45382;SDS011;42455;51.660;5.824;2022-07-23T23:07:15;11.0;;;10.0;;
45382;SDS011;42455;51.660;5.824;2022-07-23T23:12:21;12.0;;;11.0;;
45382;SDS011;42455;51.660;5.824;2022-07-23T23:17:27;13.0;;;12.0;;
45382;SDS011;42455;51.660;5.824;2022-07-23T23:22:34;12.0;;;11.0;;
45382;SDS011;42455;51.660;5.824;2022-07-23T23:27:40;12.0;;;11.0;;
45382;SDS011;42455;51.660;5.824;2022-07-23T23:32:46;12.0;;;11.0;;
45382;SDS011;42455;51.660;5.824;2022-07-23T23:42:58;12.0;;;11.0;;
45382;SDS011;42455;51.660;5.824;2022-07-23T23:48:05;13.0;;;11.0;;
45382;SDS011;42455;51.660;5.824;2022-07-23T23:53:11;12.0;;;11.0;;
45382;SDS011;42455;51.660;5.824;2022-07-23T23:58:17;12.0;;;11.0;;
